This is the latest recevied weather packets stored in our database for station/object OH6DL-15. If no packets are shown the sender has not sent any weather packets the latest 10 day(s).
| Time | Temp. | Humidity | Pressure | Rain* | Wind** | Luminosity | Snow |
|---|---|---|---|---|---|---|---|
| 1777818423 | 12.78° C | 38% | 1006 hPa | 0 mm | - | - | - |
| 1777817477 | 12.78° C | 40% | 1006.2 hPa | 0 mm | - | - | - |
| 1777813203 | 11.67° C | 43% | 1006.4 hPa | 0 mm | - | - | - |
| 1777811763 | 11.67° C | 41% | 1006.4 hPa | 0 mm | - | - | - |
| 1777807623 | 10.56° C | 53% | 1006.5 hPa | 0 mm | - | - | - |
| 1777805235 | 10° C | 52% | 1006.8 hPa | 0 mm | - | - | - |
| 1777798933 | 7.78° C | 66% | 1006.9 hPa | 0 mm | - | - | - |
| 1777797363 | 7.78° C | 68% | 1006.8 hPa | 0 mm | - | - | - |
| 1777795744 | 7.22° C | 68% | 1006.8 hPa | 0 mm | - | - | - |
| 1777781883 | 6.67° C | 80% | 1005.3 hPa | 0 mm | - | - | - |
| 1777780443 | 7.22° C | 80% | 1004.9 hPa | 0 mm | - | - | - |
| 1777776303 | 7.78° C | 81% | 1004.7 hPa | 0 mm | - | - | - |
| 1777774817 | 7.78° C | 79% | 1004.8 hPa | 0 mm | - | - | - |
| 1777773243 | 8.33° C | 77% | 1004.1 hPa | 0 mm | - | - | - |
| 1777772163 | 8.33° C | 76% | 1004.4 hPa | 0 mm | - | - | - |
| 1777769643 | 9.44° C | 72% | 1004.5 hPa | 0 mm | - | - | - |
| 1777767484 | 9.44° C | 72% | 1004 hPa | 0 mm | - | - | - |
| 1777762443 | 9.44° C | 73% | 1003.8 hPa | 0 mm | - | - | - |
| 1777761903 | 9.44° C | 71% | 1004.1 hPa | 0 mm | - | - | - |
| 1777759743 | 10° C | 66% | 1004.2 hPa | 0 mm | - | - | - |
| 1777755735 | 11.11° C | 66% | 1004.9 hPa | 0 mm | - | - | - |
| 1777753623 | 11.67° C | 61% | 1004.5 hPa | 0 mm | - | - | - |
| 1777753083 | 11.67° C | 62% | 1004.5 hPa | 0 mm | - | - | - |
| 1777752543 | 12.22° C | 57% | 1004.5 hPa | 0 mm | - | - | - |
| 1777750563 | 11.67° C | 61% | 1004.8 hPa | 0 mm | - | - | - |
* Rain latest hour (hover to see other rain measurements)
** Current wind speed in m/s (hover to see current wind gust speed)